createdAt,value
2019-02-16T07:19:46.058Z,3.93
2019-02-16T07:22:16.799Z,3.87
2019-02-16T07:24:51.955Z,4.63
2019-02-16T07:27:22.779Z,3.77
2019-02-16T07:29:53.707Z,4.10
2019-02-16T07:32:24.504Z,4.60
2019-02-16T07:34:55.248Z,4.30
2019-02-16T07:37:26.200Z,5.07
2019-02-16T07:39:59.371Z,4.13
2019-02-16T07:42:48.269Z,5.10
2019-02-16T07:45:35.748Z,4.10
2019-02-16T07:48:42.789Z,4.63
2019-02-16T07:51:44.313Z,4.70
2019-02-16T07:54:33.046Z,4.80
2019-02-16T07:57:26.084Z,4.70
2019-02-16T08:00:15.012Z,4.30
2019-02-16T08:03:14.089Z,4.90
2019-02-16T08:06:05.323Z,5.10
2019-02-16T08:08:50.816Z,4.70
2019-02-16T08:11:42.853Z,4.60
2019-02-16T08:14:20.911Z,4.77
2019-02-16T08:17:13.493Z,4.40
2019-02-16T08:19:59.776Z,4.43
2019-02-16T08:22:41.010Z,4.40
2019-02-16T08:25:33.471Z,5.20
2019-02-16T08:28:12.000Z,4.70
2019-02-16T08:30:55.089Z,5.30
2019-02-16T08:33:54.294Z,4.77
2019-02-16T08:38:50.725Z,4.60
2019-02-16T08:40:21.860Z,4.77
2019-02-16T08:43:04.100Z,5.13
2019-02-16T08:45:50.445Z,4.93
2019-02-16T08:48:37.349Z,5.13
2019-02-16T08:51:24.079Z,4.87
2019-02-16T08:54:17.091Z,4.57
2019-02-16T08:57:10.675Z,4.90
2019-02-16T08:59:59.171Z,5.67
2019-02-16T09:02:58.023Z,5.23
2019-02-16T09:05:40.622Z,5.90
2019-02-16T09:08:18.480Z,5.00
2019-02-16T09:11:07.152Z,5.33
2019-02-16T09:13:50.089Z,6.20
2019-02-16T09:16:31.311Z,5.43
2019-02-16T09:19:18.661Z,5.70
2019-02-16T09:22:02.952Z,6.20
2019-02-16T09:24:51.709Z,4.63
2019-02-16T09:27:45.603Z,5.50
2019-02-16T09:30:34.376Z,5.27
2019-02-16T09:33:26.716Z,5.47
2019-02-16T09:36:31.976Z,5.43
2019-02-16T09:39:12.618Z,4.97
2019-02-16T09:41:59.783Z,6.13
2019-02-16T09:44:53.920Z,5.37
2019-02-16T09:48:01.482Z,5.50
2019-02-16T09:51:14.779Z,6.00
2019-02-16T09:54:08.356Z,6.43
2019-02-16T09:56:51.711Z,5.67
2019-02-16T09:59:37.448Z,6.77
2019-02-16T10:02:30.954Z,6.27
2019-02-16T10:05:20.988Z,5.90
2019-02-16T10:08:13.146Z,4.90
2019-02-16T10:10:53.379Z,5.27
2019-02-16T10:13:43.199Z,5.03
2019-02-16T10:16:36.251Z,5.20
2019-02-16T10:19:40.482Z,5.00
2019-02-16T10:22:22.527Z,5.70
2019-02-16T10:25:16.624Z,6.10
2019-02-16T10:28:03.590Z,5.30
2019-02-16T10:30:55.083Z,6.13
2019-02-16T10:34:06.203Z,5.40
2019-02-16T10:36:57.785Z,5.60
2019-02-16T10:40:03.987Z,5.50
2019-02-16T10:42:45.059Z,6.30
2019-02-16T10:45:33.428Z,4.90
2019-02-16T10:48:12.345Z,6.03
2019-02-16T10:50:51.317Z,6.03
2019-02-16T10:53:54.523Z,5.90
2019-02-16T10:56:35.301Z,5.30
2019-02-16T10:59:40.274Z,5.57
2019-02-16T11:02:38.823Z,5.37
2019-02-16T11:05:34.379Z,5.10
2019-02-16T11:08:15.763Z,5.87
2019-02-16T11:11:08.856Z,5.50
2019-02-16T11:13:54.780Z,5.03
2019-02-16T11:16:44.953Z,6.00
2019-02-16T11:19:42.930Z,5.30
2019-02-16T11:22:19.048Z,5.90
2019-02-16T11:25:13.799Z,5.90
2019-02-16T11:28:20.366Z,5.87
2019-02-16T11:31:05.165Z,6.50
2019-02-16T11:34:02.766Z,6.90
2019-02-16T11:36:45.915Z,6.27
2019-02-16T11:39:49.221Z,6.57
2019-02-16T11:42:26.871Z,5.90
2019-02-16T11:45:20.395Z,5.83
2019-02-16T11:48:13.343Z,6.13
2019-02-16T11:51:09.288Z,5.90
2019-02-16T11:53:56.385Z,5.70
2019-02-16T11:56:52.327Z,5.90
2019-02-16T11:59:57.002Z,6.70
2019-02-16T12:02:49.827Z,5.60
2019-02-16T12:05:45.387Z,5.30
2019-02-16T12:08:27.142Z,5.53
2019-02-16T12:11:13.340Z,6.30
2019-02-16T12:14:06.007Z,5.90
2019-02-16T12:16:51.794Z,5.83
2019-02-16T12:19:41.767Z,5.80
2019-02-16T12:22:36.876Z,6.13
2019-02-16T12:25:21.265Z,5.87
2019-02-16T12:28:21.614Z,6.23
2019-02-16T12:31:04.036Z,5.67
2019-02-16T12:33:55.749Z,6.63
2019-02-16T12:36:55.091Z,6.30
2019-02-16T12:39:44.873Z,5.97
2019-02-16T12:42:30.963Z,5.60
2019-02-16T12:45:21.475Z,6.17
2019-02-16T12:48:04.906Z,6.30
2019-02-16T12:50:43.705Z,5.80
2019-02-16T12:53:32.280Z,5.50
2019-02-16T12:56:16.414Z,6.80
2019-02-16T12:58:56.804Z,6.50
2019-02-16T13:01:43.020Z,7.07
2019-02-16T13:04:40.236Z,5.83
2019-02-16T13:07:16.396Z,6.60
2019-02-16T13:09:55.925Z,5.73
2019-02-16T13:12:44.476Z,5.77
2019-02-16T13:15:49.027Z,6.37
2019-02-16T13:18:39.708Z,6.30
2019-02-16T13:21:27.339Z,6.37
2019-02-16T13:24:09.104Z,6.17
2019-02-16T13:26:49.177Z,6.67
2019-02-16T13:29:48.220Z,7.30
2019-02-16T13:32:38.035Z,6.00
2019-02-16T13:35:31.037Z,6.87
2019-02-16T13:38:30.345Z,6.90
2019-02-16T13:41:19.004Z,5.57
2019-02-16T13:44:11.752Z,6.10
2019-02-16T13:46:54.482Z,6.43
2019-02-16T13:49:37.467Z,6.40
2019-02-16T13:52:36.259Z,5.97
2019-02-16T13:55:17.417Z,6.90
2019-02-16T13:58:09.717Z,6.23
2019-02-16T14:00:59.599Z,5.87
2019-02-16T14:03:52.308Z,6.20
2019-02-16T14:06:42.139Z,6.20
2019-02-16T14:09:29.722Z,6.17
2019-02-16T14:12:15.633Z,6.10
2019-02-16T14:15:07.580Z,6.00
2019-02-16T14:17:47.552Z,5.70
2019-02-16T14:20:18.161Z,6.40
2019-02-16T14:22:48.894Z,7.33
2019-02-16T14:25:43.749Z,5.40
2019-02-16T14:28:12.998Z,5.50
2019-02-16T14:30:43.658Z,6.70
2019-02-16T14:33:16.299Z,6.07
2019-02-16T14:35:47.038Z,6.77
2019-02-16T14:38:35.389Z,6.57
2019-02-16T14:41:09.103Z,6.40
2019-02-16T14:43:39.796Z,6.40
2019-02-16T14:46:11.517Z,6.53
2019-02-16T14:48:42.320Z,6.80
2019-02-16T14:51:12.965Z,5.93
2019-02-16T14:53:43.455Z,6.30
2019-02-16T14:56:14.312Z,5.67
2019-02-16T14:58:45.183Z,6.30
2019-02-16T15:01:15.923Z,7.23
2019-02-16T15:03:46.784Z,6.30
2019-02-16T15:06:17.661Z,6.10
2019-02-16T15:08:48.482Z,7.03
2019-02-16T15:11:20.975Z,6.60
2019-02-16T15:13:51.631Z,7.03
2019-02-16T15:16:22.996Z,6.53
2019-02-16T15:18:53.804Z,6.83
2019-02-16T15:21:26.457Z,7.10
2019-02-16T15:23:58.587Z,6.50
2019-02-16T15:26:29.469Z,7.90
2019-02-16T15:29:03.033Z,6.40
2019-02-16T15:31:35.925Z,7.70
2019-02-16T15:34:06.765Z,8.10
2019-02-16T15:36:37.628Z,6.77
2019-02-16T15:39:08.509Z,8.10
2019-02-16T15:41:39.507Z,8.40
2019-02-16T15:44:10.816Z,7.40
2019-02-16T15:46:41.765Z,7.40
2019-02-16T15:49:14.086Z,8.07
2019-02-16T15:51:44.916Z,6.80
2019-02-16T15:54:15.889Z,9.10
2019-02-16T15:56:48.314Z,8.73
2019-02-16T15:59:20.896Z,7.73
2019-02-16T16:01:54.948Z,9.77
2019-02-16T16:04:25.918Z,9.00
2019-02-16T16:06:56.670Z,10.23
2019-02-16T16:09:39.302Z,8.80
2019-02-16T16:12:24.627Z,8.73
2019-02-16T16:15:17.378Z,8.27
2019-02-16T16:17:59.198Z,9.73
2019-02-16T16:20:49.421Z,9.13
2019-02-16T16:23:39.654Z,7.53
2019-02-16T16:26:23.659Z,9.07
2019-02-16T16:29:13.604Z,8.63
2019-02-16T16:32:05.830Z,8.27
2019-02-16T16:35:04.540Z,8.40
2019-02-16T16:37:40.528Z,9.60
2019-02-16T16:40:31.621Z,9.00
2019-02-16T16:43:36.918Z,9.83
2019-02-16T16:46:26.723Z,8.80
2019-02-16T16:49:16.991Z,9.77
2019-02-16T16:52:15.116Z,10.00
2019-02-16T16:55:10.529Z,9.77
2019-02-16T16:57:51.129Z,10.20
2019-02-16T17:00:51.520Z,9.63
2019-02-16T17:03:40.185Z,10.03
2019-02-16T17:06:36.193Z,10.87
2019-02-16T17:09:26.884Z,10.50
2019-02-16T17:12:22.739Z,9.80
2019-02-16T17:15:26.786Z,11.80
2019-02-16T17:18:08.889Z,12.37
2019-02-16T17:20:59.650Z,11.83
2019-02-16T17:23:49.694Z,11.03
2019-02-16T17:26:42.053Z,11.60
2019-02-16T17:29:19.687Z,11.30
2019-02-16T17:32:00.827Z,12.33
2019-02-16T17:34:42.178Z,11.17
2019-02-16T17:37:32.163Z,11.03
2019-02-16T17:40:40.450Z,10.73
2019-02-16T17:43:37.307Z,12.57
2019-02-16T17:46:45.607Z,13.10
2019-02-16T17:49:33.656Z,11.13
2019-02-16T17:52:19.330Z,13.07
2019-02-16T17:55:21.724Z,13.27
2019-02-16T17:58:00.794Z,11.43
2019-02-16T18:00:44.996Z,12.60
2019-02-16T18:03:23.850Z,12.60
2019-02-16T18:06:07.085Z,12.67
2019-02-16T18:09:06.019Z,13.87
2019-02-16T18:11:52.193Z,13.77
2019-02-16T18:14:37.019Z,12.77
2019-02-16T18:18:21.868Z,16.30
2019-02-16T18:21:21.441Z,15.40
2019-02-16T18:24:25.862Z,15.50
2019-02-16T18:27:25.777Z,13.87
2019-02-16T18:30:30.310Z,14.70
2019-02-16T18:33:33.928Z,15.13
2019-02-16T18:36:39.567Z,13.37
2019-02-16T18:39:52.321Z,12.00
2019-02-16T18:42:35.312Z,11.70
2019-02-16T18:45:28.976Z,13.50
2019-02-16T18:48:11.706Z,13.30
2019-02-16T18:51:17.642Z,14.77
2019-02-16T18:54:06.115Z,13.57
2019-02-16T18:57:06.300Z,14.33
2019-02-16T18:59:38.802Z,14.30
2019-02-16T19:02:35.475Z,14.93
2019-02-16T19:05:25.796Z,15.10
2019-02-16T19:08:09.043Z,13.47
2019-02-16T19:10:52.928Z,13.53
2019-02-16T19:14:08.404Z,14.13
2019-02-16T19:17:18.086Z,14.80
2019-02-16T19:19:59.565Z,14.30
2019-02-16T19:22:42.698Z,15.40
2019-02-16T19:25:52.199Z,14.03
2019-02-16T19:28:33.512Z,14.33
2019-02-16T19:31:25.065Z,14.73
2019-02-16T19:34:19.637Z,14.80
2019-02-16T19:37:12.776Z,16.03
2019-02-16T19:40:01.499Z,16.23
2019-02-16T19:42:46.592Z,14.70
2019-02-16T19:45:28.809Z,15.17
2019-02-16T19:48:16.672Z,14.50
2019-02-16T19:51:04.464Z,14.60
2019-02-16T19:53:58.708Z,14.90
2019-02-16T19:56:45.346Z,16.57
2019-02-16T19:59:38.690Z,15.70
2019-02-16T20:02:26.172Z,14.60
2019-02-16T20:05:09.659Z,13.47
2019-02-16T20:07:54.921Z,13.53
2019-02-16T20:10:43.948Z,13.80
2019-02-16T20:13:34.586Z,13.60
2019-02-16T20:16:17.863Z,14.47
2019-02-16T20:19:19.608Z,15.20
2019-02-16T20:22:05.570Z,14.33
2019-02-16T20:25:06.158Z,15.07
2019-02-16T20:28:14.680Z,14.50
2019-02-16T20:31:00.205Z,14.03
2019-02-16T20:33:58.505Z,13.50
2019-02-16T20:36:36.028Z,14.37
2019-02-16T20:39:28.892Z,15.03
2019-02-16T20:42:11.395Z,15.40
2019-02-16T20:44:59.969Z,15.90
2019-02-16T20:47:47.423Z,15.50
2019-02-16T20:51:08.300Z,16.77
2019-02-16T20:54:25.879Z,16.67
2019-02-16T20:57:28.334Z,17.67
2019-02-16T21:00:33.624Z,17.90
2019-02-16T21:03:25.827Z,15.67
2019-02-16T21:06:32.630Z,16.07
2019-02-16T21:09:55.105Z,16.90
2019-02-16T21:12:57.098Z,16.47
2019-02-16T21:23:27.615Z,16.43
2019-02-16T21:26:36.288Z,16.10
2019-02-16T21:29:28.391Z,15.70
2019-02-16T21:32:13.359Z,17.77
2019-02-16T21:35:32.196Z,16.43
2019-02-16T21:38:41.809Z,18.33
2019-02-16T21:41:27.224Z,15.40
2019-02-16T21:44:08.500Z,15.80
2019-02-16T21:47:05.616Z,16.43
2019-02-16T21:50:32.734Z,16.30
2019-02-16T21:53:48.639Z,16.77
2019-02-16T22:00:27.599Z,15.63
2019-02-16T22:03:32.493Z,15.80
2019-02-16T22:09:55.985Z,16.57
2019-02-16T22:13:00.996Z,20.63
2019-02-16T22:16:01.087Z,18.53
2019-02-16T22:18:32.645Z,17.80
2019-02-16T22:21:08.999Z,17.90
2019-02-16T22:23:55.849Z,26.07
2019-02-16T22:26:24.530Z,19.93
2019-02-16T22:28:58.392Z,20.40
2019-02-16T22:31:42.927Z,19.27
2019-02-16T22:34:16.477Z,19.57
2019-02-16T22:36:56.516Z,20.30
2019-02-16T22:39:27.840Z,20.07
2019-02-16T22:41:58.921Z,18.67
2019-02-16T22:44:29.953Z,18.53
2019-02-16T22:47:10.692Z,19.93
2019-02-16T22:49:44.151Z,19.33
2019-02-16T22:52:28.973Z,19.20
2019-02-16T22:55:36.207Z,19.47
2019-02-16T22:57:54.783Z,19.97
2019-02-16T23:00:52.041Z,19.10
2019-02-16T23:03:37.618Z,19.67
2019-02-16T23:06:21.516Z,20.10
2019-02-16T23:09:32.036Z,20.63
2019-02-16T23:12:30.537Z,20.50
2019-02-16T23:15:01.865Z,21.17
2019-02-16T23:17:50.006Z,20.03
2019-02-16T23:20:31.536Z,19.27
2019-02-16T23:23:30.871Z,21.60
2019-02-16T23:26:04.693Z,21.13
2019-02-16T23:28:46.797Z,19.43
2019-02-16T23:31:26.076Z,18.10
2019-02-16T23:34:07.268Z,17.53
2019-02-16T23:36:53.418Z,19.00
2019-02-16T23:39:56.921Z,17.73
2019-02-16T23:42:30.415Z,17.73
2019-02-16T23:45:07.271Z,18.03
2019-02-16T23:47:39.106Z,18.80
2019-02-16T23:50:32.486Z,18.93
2019-02-16T23:53:27.830Z,19.20
2019-02-16T23:56:00.822Z,16.73
2019-02-16T23:59:00.945Z,18.20
